Terminal Aerodrome Forecast
Issued by NWS

Home | Current Version | Previous Version | Text Only | Print | Product List | Glossary On
Versions: 1 2 3 4 5 6 7 8 9 10 11 12 13 14
000
FTUS41 KPHI 280523
TAFMIV
TAF
KMIV 280523Z 2806/2906 VRB03KT 6SM BR SCT035
      TEMPO 2808/2811 3SM BR BKN020
     FM281600 22006KT P6SM SCT035
     FM282200 17006KT P6SM SCT040
     FM290100 VRB03KT P6SM FEW035 SCT250=

USA.gov is the U.S. government's official web portal to all federal, state and local government web resources and services.